sensor_id;sensor_type;location;lat;lon;timestamp;P1;durP1;ratioP1;P2;durP2;ratioP2
24102;SDS011;12278;53.058;9.028;2022-11-23T00:00:22;9.13;;;4.63;;
24102;SDS011;12278;53.058;9.028;2022-11-23T00:04:23;7.73;;;5.33;;
24102;SDS011;12278;53.058;9.028;2022-11-23T00:08:24;8.83;;;5.67;;
24102;SDS011;12278;53.058;9.028;2022-11-23T00:12:25;11.40;;;4.47;;
24102;SDS011;12278;53.058;9.028;2022-11-23T00:16:26;10.20;;;4.80;;
24102;SDS011;12278;53.058;9.028;2022-11-23T00:20:28;8.00;;;4.60;;
24102;SDS011;12278;53.058;9.028;2022-11-23T00:24:29;8.40;;;5.10;;
24102;SDS011;12278;53.058;9.028;2022-11-23T00:28:30;10.07;;;4.97;;
24102;SDS011;12278;53.058;9.028;2022-11-23T00:32:31;10.13;;;6.13;;
24102;SDS011;12278;53.058;9.028;2022-11-23T00:36:32;11.47;;;5.47;;
24102;SDS011;12278;53.058;9.028;2022-11-23T00:40:32;10.30;;;6.33;;
24102;SDS011;12278;53.058;9.028;2022-11-23T00:44:33;10.93;;;6.00;;
24102;SDS011;12278;53.058;9.028;2022-11-23T00:48:34;6.30;;;5.00;;
24102;SDS011;12278;53.058;9.028;2022-11-23T00:52:35;9.27;;;4.97;;
24102;SDS011;12278;53.058;9.028;2022-11-23T00:56:36;7.87;;;5.53;;
24102;SDS011;12278;53.058;9.028;2022-11-23T01:00:37;6.43;;;5.00;;
24102;SDS011;12278;53.058;9.028;2022-11-23T01:04:38;9.17;;;5.53;;
24102;SDS011;12278;53.058;9.028;2022-11-23T01:08:39;7.63;;;5.23;;
24102;SDS011;12278;53.058;9.028;2022-11-23T01:12:40;10.30;;;4.77;;
24102;SDS011;12278;53.058;9.028;2022-11-23T01:16:40;6.40;;;4.70;;
24102;SDS011;12278;53.058;9.028;2022-11-23T01:20:42;10.17;;;4.87;;
24102;SDS011;12278;53.058;9.028;2022-11-23T01:24:43;11.47;;;4.87;;
24102;SDS011;12278;53.058;9.028;2022-11-23T01:28:43;6.60;;;4.90;;
24102;SDS011;12278;53.058;9.028;2022-11-23T01:32:44;5.53;;;3.53;;
24102;SDS011;12278;53.058;9.028;2022-11-23T01:36:46;9.43;;;4.70;;
24102;SDS011;12278;53.058;9.028;2022-11-23T01:40:46;7.80;;;4.67;;
24102;SDS011;12278;53.058;9.028;2022-11-23T01:44:47;11.73;;;4.70;;
24102;SDS011;12278;53.058;9.028;2022-11-23T01:52:54;9.53;;;4.47;;
24102;SDS011;12278;53.058;9.028;2022-11-23T01:56:58;7.93;;;4.70;;
24102;SDS011;12278;53.058;9.028;2022-11-23T02:01:05;8.77;;;4.10;;
24102;SDS011;12278;53.058;9.028;2022-11-23T02:05:06;10.07;;;4.00;;
24102;SDS011;12278;53.058;9.028;2022-11-23T02:09:07;4.80;;;3.80;;
24102;SDS011;12278;53.058;9.028;2022-11-23T02:13:09;7.43;;;3.93;;
24102;SDS011;12278;53.058;9.028;2022-11-23T02:17:11;10.53;;;4.30;;
24102;SDS011;12278;53.058;9.028;2022-11-23T02:21:12;7.27;;;3.90;;
24102;SDS011;12278;53.058;9.028;2022-11-23T02:25:34;5.97;;;4.00;;
24102;SDS011;12278;53.058;9.028;2022-11-23T02:29:46;7.33;;;3.97;;
24102;SDS011;12278;53.058;9.028;2022-11-23T02:33:48;6.50;;;3.43;;
24102;SDS011;12278;53.058;9.028;2022-11-23T02:37:48;8.87;;;4.00;;
24102;SDS011;12278;53.058;9.028;2022-11-23T02:41:51;6.70;;;3.80;;
24102;SDS011;12278;53.058;9.028;2022-11-23T02:45:56;5.70;;;3.90;;
24102;SDS011;12278;53.058;9.028;2022-11-23T02:50:00;7.03;;;3.70;;
24102;SDS011;12278;53.058;9.028;2022-11-23T02:54:00;5.23;;;3.33;;
24102;SDS011;12278;53.058;9.028;2022-11-23T02:58:01;6.57;;;3.53;;
24102;SDS011;12278;53.058;9.028;2022-11-23T03:02:03;6.30;;;3.93;;
24102;SDS011;12278;53.058;9.028;2022-11-23T03:06:04;5.47;;;3.50;;
24102;SDS011;12278;53.058;9.028;2022-11-23T03:10:05;6.57;;;4.00;;
24102;SDS011;12278;53.058;9.028;2022-11-23T03:14:06;6.90;;;3.87;;
24102;SDS011;12278;53.058;9.028;2022-11-23T03:18:07;4.33;;;3.90;;
24102;SDS011;12278;53.058;9.028;2022-11-23T03:22:08;4.77;;;3.43;;
24102;SDS011;12278;53.058;9.028;2022-11-23T03:26:08;7.00;;;3.53;;
24102;SDS011;12278;53.058;9.028;2022-11-23T03:30:09;4.93;;;3.07;;
24102;SDS011;12278;53.058;9.028;2022-11-23T03:34:10;5.80;;;3.70;;
24102;SDS011;12278;53.058;9.028;2022-11-23T03:38:11;5.77;;;3.57;;
24102;SDS011;12278;53.058;9.028;2022-11-23T03:42:12;4.23;;;3.77;;
24102;SDS011;12278;53.058;9.028;2022-11-23T03:46:12;6.30;;;3.87;;
24102;SDS011;12278;53.058;9.028;2022-11-23T03:50:13;6.27;;;4.00;;
24102;SDS011;12278;53.058;9.028;2022-11-23T03:54:14;7.00;;;3.50;;
24102;SDS011;12278;53.058;9.028;2022-11-23T03:58:15;4.90;;;3.50;;
24102;SDS011;12278;53.058;9.028;2022-11-23T04:02:15;4.63;;;3.40;;
24102;SDS011;12278;53.058;9.028;2022-11-23T04:06:16;7.70;;;3.37;;
24102;SDS011;12278;53.058;9.028;2022-11-23T04:10:17;5.67;;;3.87;;
24102;SDS011;12278;53.058;9.028;2022-11-23T04:14:19;7.07;;;3.97;;
24102;SDS011;12278;53.058;9.028;2022-11-23T04:18:19;6.23;;;3.50;;
24102;SDS011;12278;53.058;9.028;2022-11-23T04:22:20;7.77;;;3.40;;
24102;SDS011;12278;53.058;9.028;2022-11-23T04:26:21;5.90;;;3.77;;
24102;SDS011;12278;53.058;9.028;2022-11-23T04:30:21;5.57;;;3.40;;
24102;SDS011;12278;53.058;9.028;2022-11-23T04:34:22;3.73;;;3.13;;
24102;SDS011;12278;53.058;9.028;2022-11-23T04:38:23;4.63;;;3.83;;
24102;SDS011;12278;53.058;9.028;2022-11-23T04:42:23;5.40;;;3.20;;
24102;SDS011;12278;53.058;9.028;2022-11-23T04:46:24;8.07;;;4.33;;
24102;SDS011;12278;53.058;9.028;2022-11-23T04:50:25;4.93;;;3.20;;
24102;SDS011;12278;53.058;9.028;2022-11-23T04:54:25;7.23;;;3.33;;
24102;SDS011;12278;53.058;9.028;2022-11-23T04:58:26;3.37;;;3.07;;
24102;SDS011;12278;53.058;9.028;2022-11-23T05:02:27;3.63;;;3.10;;
24102;SDS011;12278;53.058;9.028;2022-11-23T05:06:27;6.57;;;3.63;;
24102;SDS011;12278;53.058;9.028;2022-11-23T05:10:28;6.57;;;3.37;;
24102;SDS011;12278;53.058;9.028;2022-11-23T05:14:28;5.23;;;3.60;;
24102;SDS011;12278;53.058;9.028;2022-11-23T05:18:29;6.87;;;3.47;;
24102;SDS011;12278;53.058;9.028;2022-11-23T05:22:30;6.47;;;2.93;;
24102;SDS011;12278;53.058;9.028;2022-11-23T05:26:30;3.90;;;3.50;;
24102;SDS011;12278;53.058;9.028;2022-11-23T05:30:31;6.10;;;4.17;;
24102;SDS011;12278;53.058;9.028;2022-11-23T05:34:32;4.33;;;3.30;;
24102;SDS011;12278;53.058;9.028;2022-11-23T05:38:32;4.40;;;3.03;;
24102;SDS011;12278;53.058;9.028;2022-11-23T05:42:33;6.33;;;3.13;;
24102;SDS011;12278;53.058;9.028;2022-11-23T05:46:34;6.63;;;3.30;;
24102;SDS011;12278;53.058;9.028;2022-11-23T05:50:35;6.60;;;3.70;;
24102;SDS011;12278;53.058;9.028;2022-11-23T05:54:36;4.53;;;3.47;;
24102;SDS011;12278;53.058;9.028;2022-11-23T05:58:36;7.63;;;4.03;;
24102;SDS011;12278;53.058;9.028;2022-11-23T06:02:37;5.03;;;3.73;;
24102;SDS011;12278;53.058;9.028;2022-11-23T06:06:38;6.43;;;3.57;;
24102;SDS011;12278;53.058;9.028;2022-11-23T06:10:38;5.13;;;3.40;;
24102;SDS011;12278;53.058;9.028;2022-11-23T06:14:39;3.83;;;3.40;;
24102;SDS011;12278;53.058;9.028;2022-11-23T06:18:40;10.10;;;4.37;;
24102;SDS011;12278;53.058;9.028;2022-11-23T06:22:40;4.73;;;3.10;;
24102;SDS011;12278;53.058;9.028;2022-11-23T06:26:41;4.50;;;3.20;;
24102;SDS011;12278;53.058;9.028;2022-11-23T06:30:42;7.27;;;3.60;;
24102;SDS011;12278;53.058;9.028;2022-11-23T06:34:42;7.17;;;3.33;;
24102;SDS011;12278;53.058;9.028;2022-11-23T06:38:43;4.33;;;3.73;;
24102;SDS011;12278;53.058;9.028;2022-11-23T06:42:44;7.60;;;3.60;;
24102;SDS011;12278;53.058;9.028;2022-11-23T06:46:44;7.13;;;4.00;;
24102;SDS011;12278;53.058;9.028;2022-11-23T06:50:45;5.60;;;3.83;;
24102;SDS011;12278;53.058;9.028;2022-11-23T06:54:46;4.40;;;3.53;;
24102;SDS011;12278;53.058;9.028;2022-11-23T06:58:47;6.87;;;3.17;;
24102;SDS011;12278;53.058;9.028;2022-11-23T07:02:51;3.63;;;2.87;;
24102;SDS011;12278;53.058;9.028;2022-11-23T07:06:53;6.20;;;3.50;;
24102;SDS011;12278;53.058;9.028;2022-11-23T07:10:58;7.03;;;3.60;;
24102;SDS011;12278;53.058;9.028;2022-11-23T07:14:59;3.67;;;2.87;;
24102;SDS011;12278;53.058;9.028;2022-11-23T07:19:00;5.27;;;2.73;;
24102;SDS011;12278;53.058;9.028;2022-11-23T07:23:01;3.53;;;2.80;;
24102;SDS011;12278;53.058;9.028;2022-11-23T07:27:03;10.27;;;4.10;;
24102;SDS011;12278;53.058;9.028;2022-11-23T07:31:04;4.53;;;3.00;;
24102;SDS011;12278;53.058;9.028;2022-11-23T07:35:05;6.93;;;3.63;;
24102;SDS011;12278;53.058;9.028;2022-11-23T07:39:06;4.77;;;3.07;;
24102;SDS011;12278;53.058;9.028;2022-11-23T07:43:07;4.73;;;3.20;;
24102;SDS011;12278;53.058;9.028;2022-11-23T07:47:09;5.07;;;2.97;;
24102;SDS011;12278;53.058;9.028;2022-11-23T07:51:09;7.00;;;3.60;;
24102;SDS011;12278;53.058;9.028;2022-11-23T07:55:10;7.03;;;3.90;;
24102;SDS011;12278;53.058;9.028;2022-11-23T07:59:11;4.97;;;3.00;;
24102;SDS011;12278;53.058;9.028;2022-11-23T08:03:12;7.73;;;3.60;;
24102;SDS011;12278;53.058;9.028;2022-11-23T08:07:13;5.33;;;3.20;;
24102;SDS011;12278;53.058;9.028;2022-11-23T08:11:14;5.80;;;3.43;;
24102;SDS011;12278;53.058;9.028;2022-11-23T08:15:17;4.10;;;2.83;;
24102;SDS011;12278;53.058;9.028;2022-11-23T08:19:18;4.67;;;3.30;;
24102;SDS011;12278;53.058;9.028;2022-11-23T08:23:19;6.70;;;3.10;;
24102;SDS011;12278;53.058;9.028;2022-11-23T08:27:19;3.73;;;3.17;;
24102;SDS011;12278;53.058;9.028;2022-11-23T08:31:20;5.77;;;3.13;;
24102;SDS011;12278;53.058;9.028;2022-11-23T08:35:21;4.67;;;2.87;;
24102;SDS011;12278;53.058;9.028;2022-11-23T08:39:21;3.40;;;2.77;;
24102;SDS011;12278;53.058;9.028;2022-11-23T08:43:22;4.33;;;2.80;;
24102;SDS011;12278;53.058;9.028;2022-11-23T08:47:23;3.97;;;2.73;;
24102;SDS011;12278;53.058;9.028;2022-11-23T08:51:23;2.50;;;2.30;;
24102;SDS011;12278;53.058;9.028;2022-11-23T08:55:24;3.60;;;3.03;;
24102;SDS011;12278;53.058;9.028;2022-11-23T08:59:26;4.17;;;2.77;;
24102;SDS011;12278;53.058;9.028;2022-11-23T09:03:27;5.20;;;3.00;;
24102;SDS011;12278;53.058;9.028;2022-11-23T09:07:27;3.10;;;2.80;;
24102;SDS011;12278;53.058;9.028;2022-11-23T09:11:28;6.67;;;2.70;;
24102;SDS011;12278;53.058;9.028;2022-11-23T09:15:29;4.93;;;3.27;;
24102;SDS011;12278;53.058;9.028;2022-11-23T09:19:30;3.43;;;2.53;;
24102;SDS011;12278;53.058;9.028;2022-11-23T09:23:31;3.47;;;2.80;;
24102;SDS011;12278;53.058;9.028;2022-11-23T09:27:32;3.50;;;2.93;;
24102;SDS011;12278;53.058;9.028;2022-11-23T09:31:33;4.93;;;2.73;;
24102;SDS011;12278;53.058;9.028;2022-11-23T09:35:34;5.50;;;3.37;;
24102;SDS011;12278;53.058;9.028;2022-11-23T09:39:35;7.03;;;3.50;;
24102;SDS011;12278;53.058;9.028;2022-11-23T09:43:50;5.97;;;3.37;;
24102;SDS011;12278;53.058;9.028;2022-11-23T09:52:29;4.33;;;3.20;;
24102;SDS011;12278;53.058;9.028;2022-11-23T09:56:34;3.30;;;2.87;;
24102;SDS011;12278;53.058;9.028;2022-11-23T10:00:40;6.43;;;2.80;;
24102;SDS011;12278;53.058;9.028;2022-11-23T10:05:03;6.27;;;2.60;;
24102;SDS011;12278;53.058;9.028;2022-11-23T10:09:19;4.43;;;2.67;;
24102;SDS011;12278;53.058;9.028;2022-11-23T10:22:04;5.07;;;2.57;;
24102;SDS011;12278;53.058;9.028;2022-11-23T10:26:15;4.43;;;2.63;;
24102;SDS011;12278;53.058;9.028;2022-11-23T10:30:18;3.20;;;2.58;;
24102;SDS011;12278;53.058;9.028;2022-11-23T10:34:25;4.35;;;2.72;;
24102;SDS011;12278;53.058;9.028;2022-11-23T10:38:49;7.50;;;3.50;;
24102;SDS011;12278;53.058;9.028;2022-11-23T10:42:55;5.40;;;2.50;;
24102;SDS011;12278;53.058;9.028;2022-11-23T10:46:58;2.80;;;2.50;;
24102;SDS011;12278;53.058;9.028;2022-11-23T10:51:15;4.63;;;2.35;;
24102;SDS011;12278;53.058;9.028;2022-11-23T10:55:24;2.90;;;2.20;;
24102;SDS011;12278;53.058;9.028;2022-11-23T10:59:32;4.45;;;2.50;;
24102;SDS011;12278;53.058;9.028;2022-11-23T11:03:34;4.97;;;2.42;;
24102;SDS011;12278;53.058;9.028;2022-11-23T11:07:35;5.05;;;2.60;;
24102;SDS011;12278;53.058;9.028;2022-11-23T11:11:38;3.28;;;2.03;;
24102;SDS011;12278;53.058;9.028;2022-11-23T11:15:55;5.53;;;2.75;;
24102;SDS011;12278;53.058;9.028;2022-11-23T11:19:57;3.22;;;2.45;;
24102;SDS011;12278;53.058;9.028;2022-11-23T11:24:03;5.38;;;2.60;;
24102;SDS011;12278;53.058;9.028;2022-11-23T11:28:20;3.70;;;2.33;;
24102;SDS011;12278;53.058;9.028;2022-11-23T11:40:56;6.40;;;2.28;;
24102;SDS011;12278;53.058;9.028;2022-11-23T11:45:00;5.18;;;1.92;;
24102;SDS011;12278;53.058;9.028;2022-11-23T11:53:11;3.58;;;2.60;;
24102;SDS011;12278;53.058;9.028;2022-11-23T12:06:03;6.03;;;2.40;;
24102;SDS011;12278;53.058;9.028;2022-11-23T12:14:13;2.38;;;1.88;;
24102;SDS011;12278;53.058;9.028;2022-11-23T12:18:27;10.43;;;2.03;;
24102;SDS011;12278;53.058;9.028;2022-11-23T12:22:42;6.93;;;2.70;;
24102;SDS011;12278;53.058;9.028;2022-11-23T12:31:29;5.63;;;2.22;;
24102;SDS011;12278;53.058;9.028;2022-11-23T12:43:53;4.78;;;1.88;;
24102;SDS011;12278;53.058;9.028;2022-11-23T13:00:54;5.00;;;1.80;;
24102;SDS011;12278;53.058;9.028;2022-11-23T13:09:33;2.40;;;2.20;;
24102;SDS011;12278;53.058;9.028;2022-11-23T13:18:52;4.65;;;1.77;;
24102;SDS011;12278;53.058;9.028;2022-11-23T13:22:57;5.20;;;1.83;;
24102;SDS011;12278;53.058;9.028;2022-11-23T13:43:40;5.45;;;1.92;;
24102;SDS011;12278;53.058;9.028;2022-11-23T13:47:41;4.47;;;1.67;;
24102;SDS011;12278;53.058;9.028;2022-11-23T14:00:43;1.63;;;1.23;;
24102;SDS011;12278;53.058;9.028;2022-11-23T14:04:44;1.63;;;1.27;;
24102;SDS011;12278;53.058;9.028;2022-11-23T14:08:49;4.07;;;1.60;;
24102;SDS011;12278;53.058;9.028;2022-11-23T14:13:01;2.70;;;1.25;;
24102;SDS011;12278;53.058;9.028;2022-11-23T14:21:41;2.95;;;1.52;;
24102;SDS011;12278;53.058;9.028;2022-11-23T14:30:37;4.93;;;1.77;;
24102;SDS011;12278;53.058;9.028;2022-11-23T14:38:59;3.03;;;1.67;;
24102;SDS011;12278;53.058;9.028;2022-11-23T14:43:23;2.35;;;1.58;;
24102;SDS011;12278;53.058;9.028;2022-11-23T14:47:26;4.70;;;1.70;;
24102;SDS011;12278;53.058;9.028;2022-11-23T14:51:30;3.55;;;2.05;;
24102;SDS011;12278;53.058;9.028;2022-11-23T14:55:33;2.83;;;1.40;;
24102;SDS011;12278;53.058;9.028;2022-11-23T14:59:35;2.50;;;1.45;;
24102;SDS011;12278;53.058;9.028;2022-11-23T15:03:38;2.72;;;1.67;;
24102;SDS011;12278;53.058;9.028;2022-11-23T15:07:48;3.15;;;1.92;;
24102;SDS011;12278;53.058;9.028;2022-11-23T15:12:04;3.47;;;2.22;;
24102;SDS011;12278;53.058;9.028;2022-11-23T15:16:21;8.70;;;2.40;;
24102;SDS011;12278;53.058;9.028;2022-11-23T15:20:26;3.25;;;1.40;;
24102;SDS011;12278;53.058;9.028;2022-11-23T15:24:32;4.50;;;1.73;;
24102;SDS011;12278;53.058;9.028;2022-11-23T15:28:34;4.13;;;2.20;;
24102;SDS011;12278;53.058;9.028;2022-11-23T15:32:36;4.18;;;2.17;;
24102;SDS011;12278;53.058;9.028;2022-11-23T15:36:36;2.63;;;2.00;;
24102;SDS011;12278;53.058;9.028;2022-11-23T15:40:39;9.20;;;2.17;;
24102;SDS011;12278;53.058;9.028;2022-11-23T15:44:42;4.53;;;1.70;;
24102;SDS011;12278;53.058;9.028;2022-11-23T15:48:46;4.72;;;2.75;;
24102;SDS011;12278;53.058;9.028;2022-11-23T15:52:48;5.85;;;2.08;;
24102;SDS011;12278;53.058;9.028;2022-11-23T15:56:51;6.13;;;2.85;;
24102;SDS011;12278;53.058;9.028;2022-11-23T16:01:12;5.82;;;2.42;;
24102;SDS011;12278;53.058;9.028;2022-11-23T16:05:15;3.63;;;2.13;;
24102;SDS011;12278;53.058;9.028;2022-11-23T16:13:42;4.90;;;2.80;;
24102;SDS011;12278;53.058;9.028;2022-11-23T16:17:44;5.47;;;2.87;;
24102;SDS011;12278;53.058;9.028;2022-11-23T16:21:45;5.27;;;3.30;;
24102;SDS011;12278;53.058;9.028;2022-11-23T16:25:56;6.93;;;3.10;;
24102;SDS011;12278;53.058;9.028;2022-11-23T16:30:00;4.70;;;2.83;;
24102;SDS011;12278;53.058;9.028;2022-11-23T16:34:12;8.60;;;3.33;;
24102;SDS011;12278;53.058;9.028;2022-11-23T16:38:19;4.17;;;1.80;;
24102;SDS011;12278;53.058;9.028;2022-11-23T16:42:20;5.63;;;2.40;;
24102;SDS011;12278;53.058;9.028;2022-11-23T16:46:20;7.17;;;2.40;;
24102;SDS011;12278;53.058;9.028;2022-11-23T16:50:21;7.50;;;2.57;;
24102;SDS011;12278;53.058;9.028;2022-11-23T16:54:22;6.43;;;2.30;;
24102;SDS011;12278;53.058;9.028;2022-11-23T16:58:23;5.50;;;2.53;;
24102;SDS011;12278;53.058;9.028;2022-11-23T17:02:28;6.65;;;2.50;;
24102;SDS011;12278;53.058;9.028;2022-11-23T17:06:29;4.30;;;3.00;;
24102;SDS011;12278;53.058;9.028;2022-11-23T17:10:30;9.10;;;2.40;;
24102;SDS011;12278;53.058;9.028;2022-11-23T17:14:32;6.43;;;2.83;;
24102;SDS011;12278;53.058;9.028;2022-11-23T17:18:37;6.80;;;2.53;;
24102;SDS011;12278;53.058;9.028;2022-11-23T17:22:38;4.17;;;2.47;;
24102;SDS011;12278;53.058;9.028;2022-11-23T17:26:39;4.37;;;2.30;;
24102;SDS011;12278;53.058;9.028;2022-11-23T17:30:43;7.87;;;3.50;;
24102;SDS011;12278;53.058;9.028;2022-11-23T17:34:43;7.30;;;2.93;;
24102;SDS011;12278;53.058;9.028;2022-11-23T17:38:45;6.67;;;2.60;;
24102;SDS011;12278;53.058;9.028;2022-11-23T17:42:48;3.70;;;2.50;;
24102;SDS011;12278;53.058;9.028;2022-11-23T17:46:49;6.93;;;2.60;;
24102;SDS011;12278;53.058;9.028;2022-11-23T17:50:51;4.57;;;2.47;;
24102;SDS011;12278;53.058;9.028;2022-11-23T17:54:52;8.73;;;3.00;;
24102;SDS011;12278;53.058;9.028;2022-11-23T17:58:53;6.67;;;2.80;;
24102;SDS011;12278;53.058;9.028;2022-11-23T18:02:53;8.13;;;3.40;;
24102;SDS011;12278;53.058;9.028;2022-11-23T18:06:54;7.97;;;3.50;;
24102;SDS011;12278;53.058;9.028;2022-11-23T18:10:55;7.20;;;2.87;;
24102;SDS011;12278;53.058;9.028;2022-11-23T18:14:55;7.90;;;2.97;;
24102;SDS011;12278;53.058;9.028;2022-11-23T18:18:56;4.57;;;2.93;;
24102;SDS011;12278;53.058;9.028;2022-11-23T18:22:57;5.60;;;3.40;;
24102;SDS011;12278;53.058;9.028;2022-11-23T18:26:57;8.30;;;3.20;;
24102;SDS011;12278;53.058;9.028;2022-11-23T18:30:58;6.50;;;3.53;;
24102;SDS011;12278;53.058;9.028;2022-11-23T18:34:59;5.33;;;3.60;;
24102;SDS011;12278;53.058;9.028;2022-11-23T18:38:59;6.23;;;3.87;;
24102;SDS011;12278;53.058;9.028;2022-11-23T18:43:00;6.10;;;3.10;;
24102;SDS011;12278;53.058;9.028;2022-11-23T18:47:01;3.80;;;2.80;;
24102;SDS011;12278;53.058;9.028;2022-11-23T18:51:02;4.03;;;3.27;;
24102;SDS011;12278;53.058;9.028;2022-11-23T18:55:04;8.07;;;2.73;;
24102;SDS011;12278;53.058;9.028;2022-11-23T18:59:05;4.97;;;3.43;;
24102;SDS011;12278;53.058;9.028;2022-11-23T19:03:06;5.80;;;3.23;;
24102;SDS011;12278;53.058;9.028;2022-11-23T19:07:07;6.50;;;3.47;;
24102;SDS011;12278;53.058;9.028;2022-11-23T19:11:09;7.50;;;3.00;;
24102;SDS011;12278;53.058;9.028;2022-11-23T19:15:18;5.10;;;3.77;;
24102;SDS011;12278;53.058;9.028;2022-11-23T19:19:19;4.77;;;2.90;;
24102;SDS011;12278;53.058;9.028;2022-11-23T19:23:19;5.83;;;3.50;;
24102;SDS011;12278;53.058;9.028;2022-11-23T19:27:20;6.83;;;3.57;;
24102;SDS011;12278;53.058;9.028;2022-11-23T19:31:24;5.33;;;3.43;;
24102;SDS011;12278;53.058;9.028;2022-11-23T19:35:26;7.90;;;3.33;;
24102;SDS011;12278;53.058;9.028;2022-11-23T19:39:27;10.13;;;3.40;;
24102;SDS011;12278;53.058;9.028;2022-11-23T19:43:28;6.60;;;3.73;;
24102;SDS011;12278;53.058;9.028;2022-11-23T19:47:29;5.47;;;3.37;;
24102;SDS011;12278;53.058;9.028;2022-11-23T19:51:30;7.13;;;3.30;;
24102;SDS011;12278;53.058;9.028;2022-11-23T19:55:31;5.70;;;3.10;;
24102;SDS011;12278;53.058;9.028;2022-11-23T19:59:31;5.10;;;2.77;;
24102;SDS011;12278;53.058;9.028;2022-11-23T20:03:32;6.87;;;3.03;;
24102;SDS011;12278;53.058;9.028;2022-11-23T20:07:34;9.17;;;3.87;;
24102;SDS011;12278;53.058;9.028;2022-11-23T20:11:35;3.97;;;2.93;;
24102;SDS011;12278;53.058;9.028;2022-11-23T20:15:38;8.03;;;3.63;;
24102;SDS011;12278;53.058;9.028;2022-11-23T20:19:42;5.33;;;3.50;;
24102;SDS011;12278;53.058;9.028;2022-11-23T20:27:46;6.13;;;3.57;;
24102;SDS011;12278;53.058;9.028;2022-11-23T20:31:47;8.10;;;3.70;;
24102;SDS011;12278;53.058;9.028;2022-11-23T20:35:48;9.07;;;3.57;;
24102;SDS011;12278;53.058;9.028;2022-11-23T20:39:50;6.13;;;3.87;;
24102;SDS011;12278;53.058;9.028;2022-11-23T20:44:02;8.40;;;4.00;;
24102;SDS011;12278;53.058;9.028;2022-11-23T20:48:11;7.53;;;4.50;;
24102;SDS011;12278;53.058;9.028;2022-11-23T20:52:12;6.43;;;3.90;;
24102;SDS011;12278;53.058;9.028;2022-11-23T20:56:13;8.57;;;4.47;;
24102;SDS011;12278;53.058;9.028;2022-11-23T21:00:14;7.40;;;3.93;;
24102;SDS011;12278;53.058;9.028;2022-11-23T21:16:45;5.10;;;3.20;;
24102;SDS011;12278;53.058;9.028;2022-11-23T21:20:57;8.80;;;4.10;;
24102;SDS011;12278;53.058;9.028;2022-11-23T21:24:57;8.37;;;4.23;;
24102;SDS011;12278;53.058;9.028;2022-11-23T21:28:59;6.23;;;3.30;;
24102;SDS011;12278;53.058;9.028;2022-11-23T21:33:00;7.37;;;3.17;;
24102;SDS011;12278;53.058;9.028;2022-11-23T21:37:00;7.90;;;3.60;;
24102;SDS011;12278;53.058;9.028;2022-11-23T21:41:01;9.93;;;3.83;;
24102;SDS011;12278;53.058;9.028;2022-11-23T21:45:11;5.07;;;3.53;;
24102;SDS011;12278;53.058;9.028;2022-11-23T21:49:12;4.87;;;3.23;;
24102;SDS011;12278;53.058;9.028;2022-11-23T21:53:13;6.23;;;3.20;;
24102;SDS011;12278;53.058;9.028;2022-11-23T21:57:14;8.10;;;3.53;;
24102;SDS011;12278;53.058;9.028;2022-11-23T22:01:16;6.63;;;4.10;;
24102;SDS011;12278;53.058;9.028;2022-11-23T22:05:21;3.87;;;3.13;;
24102;SDS011;12278;53.058;9.028;2022-11-23T22:09:22;4.50;;;3.50;;
24102;SDS011;12278;53.058;9.028;2022-11-23T22:13:22;8.37;;;3.47;;
24102;SDS011;12278;53.058;9.028;2022-11-23T22:17:23;4.53;;;3.73;;
24102;SDS011;12278;53.058;9.028;2022-11-23T22:21:27;10.97;;;4.50;;
24102;SDS011;12278;53.058;9.028;2022-11-23T22:25:31;5.40;;;3.83;;
24102;SDS011;12278;53.058;9.028;2022-11-23T22:29:33;10.27;;;4.53;;
24102;SDS011;12278;53.058;9.028;2022-11-23T22:33:34;5.87;;;3.90;;
24102;SDS011;12278;53.058;9.028;2022-11-23T22:37:35;8.20;;;3.63;;
24102;SDS011;12278;53.058;9.028;2022-11-23T22:41:36;6.87;;;3.97;;
24102;SDS011;12278;53.058;9.028;2022-11-23T22:45:37;6.57;;;3.40;;
24102;SDS011;12278;53.058;9.028;2022-11-23T22:49:38;7.77;;;3.63;;
24102;SDS011;12278;53.058;9.028;2022-11-23T22:53:39;6.13;;;2.97;;
24102;SDS011;12278;53.058;9.028;2022-11-23T22:57:43;7.43;;;3.10;;
24102;SDS011;12278;53.058;9.028;2022-11-23T23:01:44;8.80;;;3.90;;
24102;SDS011;12278;53.058;9.028;2022-11-23T23:05:54;8.47;;;3.70;;
24102;SDS011;12278;53.058;9.028;2022-11-23T23:09:56;9.10;;;4.00;;
24102;SDS011;12278;53.058;9.028;2022-11-23T23:13:57;6.70;;;3.43;;
24102;SDS011;12278;53.058;9.028;2022-11-23T23:17:58;9.30;;;3.33;;
24102;SDS011;12278;53.058;9.028;2022-11-23T23:21:59;6.63;;;3.63;;
24102;SDS011;12278;53.058;9.028;2022-11-23T23:26:00;7.57;;;3.27;;
24102;SDS011;12278;53.058;9.028;2022-11-23T23:30:00;6.70;;;3.63;;
24102;SDS011;12278;53.058;9.028;2022-11-23T23:34:02;13.10;;;4.00;;
24102;SDS011;12278;53.058;9.028;2022-11-23T23:38:02;5.47;;;3.23;;
24102;SDS011;12278;53.058;9.028;2022-11-23T23:42:03;5.20;;;3.60;;
24102;SDS011;12278;53.058;9.028;2022-11-23T23:46:07;4.37;;;3.00;;
24102;SDS011;12278;53.058;9.028;2022-11-23T23:50:15;5.10;;;3.13;;
24102;SDS011;12278;53.058;9.028;2022-11-23T23:54:16;6.37;;;3.40;;
24102;SDS011;12278;53.058;9.028;2022-11-23T23:58:17;6.50;;;3.13;;
